McComb, MS

5:52 AM CST on January 17, 2017 (GMT -0600)
| | Change Station
Active Advisory: Marine Fog Advisory

Elev -9999 ft 0.00 °N, 0.00 °E | Updated 0 second ago

Overcast
Overcast
°F
Feels Like °F
N
Wind Variable Wind from North
Gusts mph

Today
High -- | Low -- °F
--% Chance of Precip.
Yesterday
High -- | Low -- °F
Precip. -- in
Pressure 30.12 in
Visibility 10.0 miles
Clouds Overcast 900 ft
Dew Point Not available.
Humidity Not available.
Rainfall --
Snow Depth Not available.
7:00 AM 5:23 PM
Waning Gibbous, 73% visible
SPECI KMCB 171141Z AUTO 19007KT 10SM OVC009 20/18 A3012 RMK AO2 CIG 007V011 T02000178
Pressure 30.12 in
Visibility 10.0 miles
Clouds Overcast 900 ft
Dew Point Not available.
Humidity Not available.
Rainfall --
Snow Depth Not available.
7:00 AM 5:23 PM
Waning Gibbous, 73% visible
SPECI KMCB 171141Z AUTO 19007KT 10SM OVC009 20/18 A3012 RMK AO2 CIG 007V011 T02000178

Get Your Daily Forecast Email!

Thanks for signing up!

Be on the lookout for a verification email in your inbox.

You'll start receiving the daily forecast at 8 AM.

×

10-Day Weather Forecast

Almanac

Astronomy

Jan. 17, 2017 Rise Set
Actual Time
Civil Twilight
Nautical Twilight
Astronomical Twilight
Moon
Length of Visible Light
Length of Day
Tomorrow will be .
, % of the Moon is Illuminated

Today's Extremes

State Highs State Lows

Community

WunderPhotos

Upload Photos

1,962,540 photos uploaded!

WunderBlog® & News

Nearby

Air Quality

  Air Quality AQ Index Pollutant
Not available.

Snow Depth

Station Depth Elevation

Earthquake Activity

City Distance Mag. Time & Date
Minimum magnitude displayed is 2.5.

Coastal Water Temperatures

Place Temperature

Stations

Nearby Weather Stations

Station Location Temp. Windchill Dew Point Humidity Wind Precip. Elev Updated Type
                   

Watches & Warnings

Marine Fog Advisory
Issued: 2:56 AM CST Jan. 17, 2017 – National Weather Service

... Dense fog advisory remains in effect until 9 am CST this
morning...

* visibility... one nautical mile or less.

Precautionary/preparedness actions...

A dense fog advisory means visibilities will frequently be
reduced to less than one mile. Inexperienced mariners...
especially those operating smaller vessels should avoid
navigating in these conditions.